Terminal Aerodrome Forecast
Issued by NWS

Home | Current Version | Previous Version | Text Only | Print | Product List | Glossary On
Versions: 1 2 3 4 5 6 7 8 9 10 11 12 13 14 15 16 17 18 19 20 21 22
000
FTUS45 KLKN 250600 AAA
TAFWMC
TAF AMD
KWMC 250612Z 2506/2606 25016G22KT P6SM VCSH BKN100 OVC120
     FM250900 24009KT P6SM -RA OVC050
     FM251800 25015G25KT P6SM VCSH OVC060
     FM260000 29010G20KT P6SM -SHRA OVC040=

USA.gov is the U.S. government's official web portal to all federal, state and local government web resources and services.